createdAt,value
2022-11-26T00:00:29.258Z,96.95
2022-11-26T00:02:57.310Z,97.14
2022-11-26T00:05:25.840Z,97.56
2022-11-26T00:07:57.102Z,97.47
2022-11-26T00:10:29.046Z,97.80
2022-11-26T00:12:57.931Z,98.03
2022-11-26T00:15:27.256Z,98.10
2022-11-26T00:17:55.575Z,98.72
2022-11-26T00:20:25.736Z,98.99
2022-11-26T00:22:55.452Z,99.21
2022-11-26T00:25:28.113Z,98.94
2022-11-26T00:27:59.056Z,99.23
2022-11-26T00:30:29.554Z,98.79
2022-11-26T00:32:57.463Z,98.88
2022-11-26T00:35:25.104Z,98.89
2022-11-26T00:37:56.220Z,98.85
2022-11-26T00:40:27.498Z,98.84
2022-11-26T00:43:01.625Z,98.87
2022-11-26T00:45:32.006Z,99.21
2022-11-26T00:48:01.552Z,99.17
2022-11-26T00:50:34.887Z,99.51
2022-11-26T00:53:02.555Z,99.48
2022-11-26T00:55:35.221Z,99.28
2022-11-26T00:58:03.122Z,99.56
2022-11-26T01:00:33.213Z,99.57
2022-11-26T01:03:01.765Z,100.00
2022-11-26T01:05:33.370Z,99.39
2022-11-26T01:08:08.081Z,99.23
2022-11-26T01:10:37.068Z,98.56
2022-11-26T01:13:04.748Z,97.95
2022-11-26T01:15:32.379Z,97.97
2022-11-26T01:18:00.052Z,98.26
2022-11-26T01:20:29.929Z,98.24
2022-11-26T01:22:59.460Z,98.04
2022-11-26T01:25:28.473Z,98.09
2022-11-26T01:27:57.418Z,97.99
2022-11-26T01:30:27.206Z,98.25
2022-11-26T01:32:54.902Z,98.16
2022-11-26T01:35:23.206Z,98.23
2022-11-26T01:37:50.961Z,98.70
2022-11-26T01:40:32.132Z,98.45
2022-11-26T01:43:07.372Z,97.83
2022-11-26T01:45:35.094Z,97.04
2022-11-26T01:48:03.005Z,95.72
2022-11-26T01:50:53.592Z,95.33
2022-11-26T01:53:38.821Z,94.25
2022-11-26T01:56:14.542Z,94.29
2022-11-26T01:58:47.338Z,94.25
2022-11-26T02:01:15.084Z,93.68
2022-11-26T02:03:50.836Z,94.48
2022-11-26T02:06:23.362Z,94.06
2022-11-26T02:08:50.977Z,94.29
2022-11-26T02:11:20.998Z,94.42
2022-11-26T02:13:53.772Z,94.32
2022-11-26T02:16:35.359Z,94.18
2022-11-26T02:19:22.506Z,94.40
2022-11-26T02:21:57.921Z,94.67
2022-11-26T02:24:39.897Z,94.46
2022-11-26T02:27:28.726Z,94.17
2022-11-26T02:30:12.114Z,94.46
2022-11-26T02:32:57.379Z,94.95
2022-11-26T02:35:33.631Z,95.40
2022-11-26T02:38:06.079Z,95.38
2022-11-26T02:40:34.026Z,95.24
2022-11-26T02:43:01.775Z,94.94
2022-11-26T02:45:35.026Z,95.39
2022-11-26T02:48:07.540Z,95.74
2022-11-26T02:54:41.657Z,95.64
2022-11-26T02:57:14.545Z,95.96
2022-11-26T02:59:43.189Z,95.19
2022-11-26T03:02:16.993Z,96.07
2022-11-26T03:04:48.543Z,96.58
2022-11-26T03:07:18.712Z,97.05
2022-11-26T03:09:52.070Z,96.98
2022-11-26T03:12:19.701Z,96.93
2022-11-26T03:14:47.464Z,96.97
2022-11-26T03:17:16.818Z,96.96
2022-11-26T03:19:44.574Z,96.81
2022-11-26T03:22:12.786Z,96.68
2022-11-26T03:24:40.968Z,96.87
2022-11-26T03:27:08.771Z,97.30
2022-11-26T03:29:36.348Z,96.95
2022-11-26T03:32:04.180Z,96.68
2022-11-26T03:34:33.257Z,97.01
2022-11-26T03:37:00.884Z,97.34
2022-11-26T03:39:28.531Z,97.53
2022-11-26T03:41:56.159Z,97.70
2022-11-26T03:44:23.757Z,98.29
2022-11-26T03:46:51.405Z,98.18
2022-11-26T03:49:19.010Z,98.42
2022-11-26T03:51:47.935Z,98.59
2022-11-26T03:54:15.640Z,99.06
2022-11-26T03:56:43.296Z,99.14
2022-11-26T03:59:10.874Z,99.37
2022-11-26T04:01:39.604Z,99.25
2022-11-26T04:04:07.210Z,99.39
2022-11-26T04:06:34.861Z,100.00
2022-11-26T04:09:04.043Z,99.98
2022-11-26T04:11:31.765Z,100.00
2022-11-26T04:13:59.404Z,100.00
2022-11-26T04:16:27.176Z,99.92
2022-11-26T04:18:55.772Z,100.00
2022-11-26T04:21:23.434Z,99.91
2022-11-26T04:23:51.043Z,100.00
2022-11-26T04:26:20.064Z,100.00
2022-11-26T04:28:47.689Z,100.00
2022-11-26T04:31:15.420Z,100.00
2022-11-26T04:33:43.160Z,100.00
2022-11-26T04:36:11.100Z,100.00
2022-11-26T04:38:39.005Z,100.00
2022-11-26T04:41:06.905Z,100.00
2022-11-26T04:43:35.885Z,100.00
2022-11-26T04:46:03.512Z,100.00
2022-11-26T04:48:31.193Z,100.00
2022-11-26T04:50:58.922Z,100.00
2022-11-26T04:53:26.612Z,100.00
2022-11-26T04:55:54.243Z,100.00
2022-11-26T04:58:22.106Z,100.00
2022-11-26T05:00:51.701Z,100.00
2022-11-26T05:03:19.935Z,100.00
2022-11-26T05:05:47.986Z,100.00
2022-11-26T05:08:15.756Z,100.00
2022-11-26T05:10:43.396Z,100.00
2022-11-26T05:13:11.128Z,100.00
2022-11-26T05:15:39.071Z,100.00
2022-11-26T05:18:08.052Z,100.00
2022-11-26T05:20:35.634Z,100.00
2022-11-26T05:23:03.276Z,100.00
2022-11-26T05:25:30.854Z,100.00
2022-11-26T05:27:58.402Z,100.00
2022-11-26T05:30:26.028Z,100.00
2022-11-26T05:32:53.715Z,100.00
2022-11-26T05:35:22.772Z,100.00
2022-11-26T05:37:50.440Z,100.00
2022-11-26T05:40:18.062Z,100.00
2022-11-26T05:42:45.693Z,100.00
2022-11-26T05:45:13.304Z,100.00
2022-11-26T05:47:40.950Z,100.00
2022-11-26T05:50:10.096Z,100.00
2022-11-26T05:52:39.070Z,100.00
2022-11-26T05:55:08.195Z,100.00
2022-11-26T05:57:35.780Z,100.00
2022-11-26T06:00:03.492Z,100.00
2022-11-26T06:02:39.795Z,100.00
2022-11-26T06:05:09.073Z,100.00
2022-11-26T06:07:40.511Z,100.00
2022-11-26T06:10:13.101Z,100.00
2022-11-26T06:12:40.701Z,100.00
2022-11-26T06:15:09.102Z,100.00
2022-11-26T06:17:36.816Z,100.00
2022-11-26T06:20:05.380Z,100.00
2022-11-26T06:22:37.400Z,100.00
2022-11-26T06:25:05.560Z,100.00
2022-11-26T06:27:35.524Z,100.00
2022-11-26T06:30:04.567Z,100.00
2022-11-26T06:32:33.081Z,100.00
2022-11-26T06:35:00.796Z,100.00
2022-11-26T06:37:28.457Z,100.00
2022-11-26T06:39:56.039Z,100.00
2022-11-26T06:42:23.623Z,100.00
2022-11-26T06:44:57.027Z,100.00
2022-11-26T06:47:27.440Z,100.00
2022-11-26T06:49:55.075Z,100.00
2022-11-26T06:52:22.659Z,100.00
2022-11-26T06:54:51.551Z,100.00
2022-11-26T06:57:19.144Z,100.00
2022-11-26T06:59:46.756Z,100.00
2022-11-26T07:02:15.750Z,100.00
2022-11-26T07:04:43.632Z,100.00
2022-11-26T07:07:11.329Z,100.00
2022-11-26T07:09:39.850Z,100.00
2022-11-26T07:12:07.661Z,100.00
2022-11-26T07:14:35.367Z,100.00
2022-11-26T07:17:02.989Z,100.00
2022-11-26T07:19:32.098Z,100.00
2022-11-26T07:21:59.756Z,100.00
2022-11-26T07:24:27.681Z,100.00
2022-11-26T07:26:56.116Z,100.00
2022-11-26T07:29:23.744Z,100.00
2022-11-26T07:31:51.434Z,100.00
2022-11-26T07:34:19.075Z,100.00
2022-11-26T07:36:48.080Z,100.00
2022-11-26T07:39:15.682Z,100.00
2022-11-26T07:41:43.264Z,100.00
2022-11-26T07:44:13.417Z,100.00
2022-11-26T07:46:41.554Z,100.00
2022-11-26T07:49:09.293Z,100.00
2022-11-26T07:51:39.239Z,100.00
2022-11-26T07:54:09.561Z,100.00
2022-11-26T07:56:37.579Z,100.00
2022-11-26T07:59:05.796Z,100.00
2022-11-26T08:01:34.025Z,100.00
2022-11-26T08:04:05.213Z,97.26
2022-11-26T08:06:33.091Z,95.37
2022-11-26T08:09:02.167Z,94.46
2022-11-26T08:11:32.762Z,94.90
2022-11-26T08:14:02.324Z,93.98
2022-11-26T08:16:30.396Z,98.07
2022-11-26T08:18:59.500Z,96.36
2022-11-26T08:21:27.660Z,96.53
2022-11-26T08:23:55.921Z,96.09
2022-11-26T08:26:32.959Z,96.10
2022-11-26T08:29:05.156Z,97.09
2022-11-26T08:36:05.985Z,97.68
2022-11-26T08:47:00.415Z,95.50
2022-11-26T08:49:28.266Z,95.63
2022-11-26T08:51:56.649Z,95.59
2022-11-26T08:54:25.031Z,95.98
2022-11-26T08:56:52.674Z,95.05
2022-11-26T08:59:22.840Z,94.46
2022-11-26T09:01:50.778Z,94.08
2022-11-26T09:04:19.784Z,93.38
2022-11-26T09:06:47.364Z,92.87
2022-11-26T09:09:15.446Z,93.76
2022-11-26T09:11:46.065Z,93.52
2022-11-26T09:14:14.542Z,93.39
2022-11-26T09:16:42.301Z,93.51
2022-11-26T09:19:11.718Z,95.09
2022-11-26T09:21:40.645Z,95.27
2022-11-26T09:24:08.865Z,94.56
2022-11-26T09:26:36.566Z,92.49
2022-11-26T09:29:05.145Z,92.51
2022-11-26T09:31:33.261Z,97.33
2022-11-26T09:34:01.978Z,94.50
2022-11-26T09:36:29.625Z,92.35
2022-11-26T09:38:59.679Z,91.01
2022-11-26T09:41:40.510Z,91.11
2022-11-26T09:44:25.280Z,91.46
2022-11-26T09:47:12.220Z,91.12
2022-11-26T09:49:45.533Z,91.93
2022-11-26T09:52:17.961Z,91.38
2022-11-26T09:54:49.167Z,91.58
2022-11-26T09:57:24.185Z,91.82
2022-11-26T09:59:54.196Z,91.09
2022-11-26T10:02:22.019Z,91.04
2022-11-26T10:04:49.810Z,91.40
2022-11-26T10:07:31.432Z,91.31
2022-11-26T10:10:09.171Z,91.37
2022-11-26T10:13:17.192Z,90.30
2022-11-26T10:15:50.369Z,90.43
2022-11-26T10:18:29.519Z,88.85
2022-11-26T10:21:08.871Z,88.96
2022-11-26T10:23:45.275Z,88.98
2022-11-26T10:26:28.367Z,88.86
2022-11-26T10:29:07.329Z,89.36
2022-11-26T10:31:35.399Z,89.21
2022-11-26T10:34:09.761Z,88.58
2022-11-26T10:36:39.666Z,93.40
2022-11-26T10:39:08.600Z,86.16
2022-11-26T10:41:38.737Z,85.60
2022-11-26T10:44:28.849Z,87.89
2022-11-26T10:46:56.580Z,80.81
2022-11-26T10:49:25.936Z,80.86
2022-11-26T10:51:57.280Z,79.30
2022-11-26T10:54:29.019Z,79.19
2022-11-26T10:57:04.904Z,78.77
2022-11-26T10:59:37.913Z,77.33
2022-11-26T11:02:30.397Z,73.45
2022-11-26T11:05:02.157Z,70.88
2022-11-26T11:07:35.108Z,72.14
2022-11-26T11:10:05.224Z,69.96
2022-11-26T11:12:34.247Z,68.24
2022-11-26T11:15:20.508Z,67.31
2022-11-26T11:17:54.565Z,65.13
2022-11-26T11:20:30.127Z,66.35
2022-11-26T11:23:01.080Z,66.09
2022-11-26T11:25:31.429Z,66.09
2022-11-26T11:28:11.957Z,69.70
2022-11-26T11:30:42.103Z,65.81
2022-11-26T11:33:28.829Z,65.54
2022-11-26T11:36:05.670Z,65.07
2022-11-26T11:38:35.494Z,64.56
2022-11-26T11:41:12.509Z,63.02
2022-11-26T11:43:41.651Z,63.54
2022-11-26T11:46:25.192Z,64.77
2022-11-26T11:49:01.175Z,62.46
2022-11-26T11:51:39.250Z,59.49
2022-11-26T11:54:16.530Z,59.59
2022-11-26T11:56:50.533Z,57.82
2022-11-26T11:59:47.834Z,57.39
2022-11-26T12:02:51.526Z,58.89
2022-11-26T12:05:43.699Z,58.78
2022-11-26T12:08:24.815Z,56.71
2022-11-26T12:11:05.270Z,57.28
2022-11-26T12:13:39.973Z,55.13
2022-11-26T12:16:13.102Z,57.13
2022-11-26T12:18:47.540Z,53.75
2022-11-26T12:21:17.384Z,53.22
2022-11-26T12:23:50.617Z,51.75
2022-11-26T12:26:23.087Z,52.14
2022-11-26T12:28:56.080Z,50.62
2022-11-26T12:31:30.625Z,50.61
2022-11-26T12:34:08.528Z,49.49
2022-11-26T12:36:45.441Z,51.74
2022-11-26T12:39:19.382Z,49.91
2022-11-26T12:41:56.499Z,49.87
2022-11-26T12:44:29.894Z,51.81
2022-11-26T12:47:05.526Z,50.49
2022-11-26T12:49:39.389Z,51.41
2022-11-26T12:52:25.714Z,49.46
2022-11-26T12:55:02.355Z,53.23
2022-11-26T12:57:35.073Z,49.17
2022-11-26T13:00:06.967Z,49.99
2022-11-26T13:02:39.059Z,52.89
2022-11-26T13:05:07.769Z,52.71
2022-11-26T13:07:50.031Z,53.26
2022-11-26T13:10:27.765Z,54.87
2022-11-26T13:13:03.905Z,55.22
2022-11-26T13:15:38.592Z,57.71
2022-11-26T13:18:14.441Z,54.80
2022-11-26T13:20:59.770Z,53.18
2022-11-26T13:23:42.106Z,54.65
2022-11-26T13:26:27.048Z,55.19
2022-11-26T13:29:23.716Z,54.65
2022-11-26T13:32:12.720Z,52.81
2022-11-26T13:34:59.841Z,55.25
2022-11-26T13:37:47.946Z,54.76
2022-11-26T13:40:48.262Z,53.03
2022-11-26T13:43:37.822Z,53.19
2022-11-26T13:46:17.599Z,50.81
2022-11-26T13:48:57.057Z,50.98
2022-11-26T13:51:32.687Z,51.17
2022-11-26T13:54:07.718Z,53.12
2022-11-26T13:56:37.401Z,50.39
2022-11-26T13:59:16.152Z,52.90
2022-11-26T14:01:44.009Z,52.19
2022-11-26T14:04:14.071Z,51.37
2022-11-26T14:07:20.196Z,51.80
2022-11-26T14:09:50.974Z,51.60
2022-11-26T14:12:19.773Z,51.56
2022-11-26T14:14:48.950Z,51.25
2022-11-26T14:17:19.787Z,52.42
2022-11-26T14:20:01.604Z,53.70
2022-11-26T14:22:33.547Z,54.92
2022-11-26T14:25:02.963Z,56.30
2022-11-26T14:27:33.378Z,56.83
2022-11-26T14:30:14.680Z,58.42
2022-11-26T14:32:49.086Z,59.81
2022-11-26T14:35:21.932Z,60.94
2022-11-26T14:37:56.620Z,60.42
2022-11-26T14:40:26.713Z,61.44
2022-11-26T14:43:15.716Z,60.90
2022-11-26T14:45:44.421Z,62.85
2022-11-26T14:48:27.734Z,62.89
2022-11-26T14:50:57.501Z,63.56
2022-11-26T14:53:29.107Z,64.33
2022-11-26T14:55:57.938Z,65.98
2022-11-26T14:58:32.823Z,66.11
2022-11-26T15:01:07.341Z,66.99
2022-11-26T15:03:35.335Z,68.19
2022-11-26T15:06:03.273Z,68.36
2022-11-26T15:08:32.198Z,68.88
2022-11-26T15:11:03.357Z,69.58
2022-11-26T15:13:37.440Z,69.75
2022-11-26T15:16:27.556Z,69.72
2022-11-26T15:18:56.549Z,70.57
2022-11-26T15:21:26.099Z,70.72
2022-11-26T15:23:59.114Z,71.82
2022-11-26T15:26:32.689Z,72.03
2022-11-26T15:29:00.168Z,72.93
2022-11-26T15:31:40.558Z,73.65
2022-11-26T15:34:12.632Z,75.08
2022-11-26T15:36:40.452Z,75.53
2022-11-26T15:39:25.334Z,76.62
2022-11-26T15:41:55.178Z,76.36
2022-11-26T15:44:26.854Z,76.05
2022-11-26T15:46:57.168Z,77.84
2022-11-26T15:49:28.203Z,78.16
2022-11-26T15:52:00.809Z,78.53
2022-11-26T15:54:49.625Z,80.00
2022-11-26T15:57:25.411Z,79.64
2022-11-26T15:59:58.382Z,87.44
2022-11-26T16:02:28.167Z,81.83
2022-11-26T16:04:57.916Z,82.26
2022-11-26T16:07:28.104Z,82.29
2022-11-26T16:10:21.358Z,81.52
2022-11-26T16:13:08.874Z,83.06
2022-11-26T16:15:37.466Z,83.54
2022-11-26T16:18:14.805Z,84.25
2022-11-26T16:20:43.162Z,84.87
2022-11-26T16:23:21.437Z,84.67
2022-11-26T16:26:08.993Z,84.58
2022-11-26T16:28:37.042Z,85.68
2022-11-26T16:31:04.800Z,85.28
2022-11-26T16:33:32.497Z,85.49
2022-11-26T16:36:01.639Z,84.94
2022-11-26T16:38:30.122Z,85.69
2022-11-26T16:40:57.711Z,86.11
2022-11-26T16:43:26.763Z,87.05
2022-11-26T16:45:56.158Z,86.88
2022-11-26T16:48:28.521Z,86.78
2022-11-26T16:50:57.131Z,86.96
2022-11-26T16:53:24.981Z,87.62
2022-11-26T16:55:54.827Z,87.78
2022-11-26T16:58:29.234Z,87.90
2022-11-26T17:00:57.738Z,88.32
2022-11-26T17:03:27.496Z,88.90
2022-11-26T17:05:57.506Z,88.19
2022-11-26T17:08:25.188Z,88.88
2022-11-26T17:10:54.810Z,88.64
2022-11-26T17:13:22.624Z,89.47
2022-11-26T17:15:52.400Z,89.76
2022-11-26T17:18:23.399Z,89.42
2022-11-26T17:20:52.720Z,89.81
2022-11-26T17:23:20.359Z,89.54
2022-11-26T17:25:52.179Z,89.36
2022-11-26T17:28:20.964Z,89.48
2022-11-26T17:30:48.656Z,89.24
2022-11-26T17:33:17.736Z,89.69
2022-11-26T17:35:45.639Z,89.82
2022-11-26T17:38:16.137Z,89.64
2022-11-26T17:40:44.784Z,89.23
2022-11-26T17:43:12.767Z,89.58
2022-11-26T17:45:42.876Z,89.22
2022-11-26T17:48:13.846Z,89.86
2022-11-26T17:50:43.242Z,89.57
2022-11-26T17:53:10.913Z,89.78
2022-11-26T17:55:39.466Z,89.84
2022-11-26T17:58:07.268Z,89.40
2022-11-26T18:00:34.942Z,89.38
2022-11-26T18:03:02.688Z,90.16
2022-11-26T18:05:30.630Z,90.12
2022-11-26T18:07:59.613Z,91.44
2022-11-26T18:10:27.417Z,91.01
2022-11-26T18:12:55.255Z,91.31
2022-11-26T18:15:24.927Z,91.15
2022-11-26T18:17:54.651Z,91.36
2022-11-26T18:20:24.954Z,90.55
2022-11-26T18:22:53.510Z,90.55
2022-11-26T18:25:22.613Z,91.17
2022-11-26T18:27:50.288Z,90.96
2022-11-26T18:30:18.730Z,91.07
2022-11-26T18:32:46.474Z,91.08
2022-11-26T18:35:14.495Z,91.51
2022-11-26T18:37:42.601Z,91.52
2022-11-26T18:40:14.421Z,92.20
2022-11-26T18:42:43.554Z,92.36
2022-11-26T18:45:14.682Z,92.72
2022-11-26T18:47:42.335Z,92.62
2022-11-26T18:50:10.579Z,93.21
2022-11-26T18:52:38.785Z,92.85
2022-11-26T18:55:08.011Z,93.60
2022-11-26T18:57:35.642Z,93.35
2022-11-26T19:00:06.833Z,93.70
2022-11-26T19:02:34.851Z,93.53
2022-11-26T19:05:03.538Z,94.69
2022-11-26T19:07:33.015Z,94.99
2022-11-26T19:10:00.806Z,94.80
2022-11-26T19:12:28.390Z,94.93
2022-11-26T19:14:56.021Z,95.07
2022-11-26T19:17:24.954Z,95.14
2022-11-26T19:19:52.550Z,95.04
2022-11-26T19:22:20.178Z,95.56
2022-11-26T19:24:49.353Z,94.86
2022-11-26T19:27:16.978Z,94.72
2022-11-26T19:29:44.582Z,95.27
2022-11-26T19:32:12.305Z,95.42
2022-11-26T19:34:41.336Z,95.27
2022-11-26T19:37:08.941Z,95.83
2022-11-26T19:39:37.358Z,95.75
2022-11-26T19:42:05.413Z,96.46
2022-11-26T19:44:35.208Z,96.35
2022-11-26T19:47:03.200Z,97.00
2022-11-26T19:49:30.883Z,96.63
2022-11-26T19:51:59.925Z,97.09
2022-11-26T19:54:27.938Z,97.77
2022-11-26T19:56:55.583Z,97.25
2022-11-26T19:59:23.217Z,98.68
2022-11-26T20:01:50.964Z,98.42
2022-11-26T20:04:19.492Z,98.55
2022-11-26T20:06:47.400Z,97.79
2022-11-26T20:09:16.372Z,98.46
2022-11-26T20:11:44.506Z,97.34
2022-11-26T20:14:14.416Z,97.08
2022-11-26T20:16:44.128Z,97.13
2022-11-26T20:19:13.170Z,98.05
2022-11-26T20:21:40.990Z,97.91
2022-11-26T20:24:12.415Z,97.79
2022-11-26T20:26:43.259Z,97.37
2022-11-26T20:29:13.572Z,96.32
2022-11-26T20:31:44.497Z,99.18
2022-11-26T20:34:14.125Z,98.58
2022-11-26T20:36:41.725Z,97.02
2022-11-26T20:39:13.496Z,95.89
2022-11-26T20:41:42.816Z,96.46
2022-11-26T20:44:10.999Z,95.87
2022-11-26T20:46:38.951Z,95.88
2022-11-26T20:49:07.349Z,96.17
2022-11-26T20:51:35.212Z,96.49
2022-11-26T20:54:03.267Z,95.68
2022-11-26T20:56:31.130Z,96.74
2022-11-26T20:59:00.060Z,96.53
2022-11-26T21:01:29.323Z,99.12
2022-11-26T21:03:57.385Z,97.30
2022-11-26T21:06:30.183Z,95.79
2022-11-26T21:09:00.332Z,95.03
2022-11-26T21:11:28.161Z,95.82
2022-11-26T21:13:55.722Z,95.94
2022-11-26T21:16:24.660Z,96.98
2022-11-26T21:18:54.003Z,95.94
2022-11-26T21:21:21.795Z,95.89
2022-11-26T21:23:49.386Z,96.06
2022-11-26T21:26:18.818Z,95.48
2022-11-26T21:28:51.131Z,95.54
2022-11-26T21:31:19.399Z,95.89
2022-11-26T21:33:54.055Z,95.70
2022-11-26T21:36:21.712Z,95.45
2022-11-26T21:38:50.120Z,96.36
2022-11-26T21:41:19.789Z,95.85
2022-11-26T21:43:49.437Z,96.18
2022-11-26T21:46:19.650Z,96.07
2022-11-26T21:48:48.719Z,96.31
2022-11-26T21:51:17.854Z,96.05
2022-11-26T21:53:45.825Z,95.90
2022-11-26T21:56:17.116Z,95.75
2022-11-26T21:58:45.066Z,95.49
2022-11-26T22:01:13.975Z,95.58
2022-11-26T22:03:43.133Z,95.58
2022-11-26T22:06:12.764Z,96.18
2022-11-26T22:08:40.738Z,96.83
2022-11-26T22:11:10.018Z,96.09
2022-11-26T22:13:37.836Z,96.54
2022-11-26T22:16:06.480Z,96.65
2022-11-26T22:18:36.463Z,96.62
2022-11-26T22:21:04.385Z,96.51
2022-11-26T22:23:33.410Z,96.12
2022-11-26T22:26:01.062Z,97.94
2022-11-26T22:28:30.332Z,97.61
2022-11-26T22:30:58.200Z,97.95
2022-11-26T22:33:25.896Z,97.24
2022-11-26T22:35:53.470Z,97.05
2022-11-26T22:38:21.054Z,97.63
2022-11-26T22:40:50.066Z,98.26
2022-11-26T22:43:17.749Z,98.22
2022-11-26T22:45:45.429Z,98.78
2022-11-26T22:48:13.165Z,97.81
2022-11-26T22:50:40.728Z,97.12
2022-11-26T22:53:08.384Z,97.54
2022-11-26T22:55:36.080Z,97.67
2022-11-26T22:58:05.033Z,96.86
2022-11-26T23:00:47.494Z,97.21
2022-11-26T23:03:16.284Z,97.69
2022-11-26T23:05:44.351Z,97.84
2022-11-26T23:08:12.623Z,98.30
2022-11-26T23:10:40.829Z,98.49
2022-11-26T23:13:10.591Z,98.22
2022-11-26T23:15:44.527Z,98.44
2022-11-26T23:18:13.649Z,98.92
2022-11-26T23:20:42.317Z,98.87
2022-11-26T23:23:10.653Z,98.71
2022-11-26T23:25:39.800Z,99.38
2022-11-26T23:28:08.000Z,99.89
2022-11-26T23:30:37.122Z,99.50
2022-11-26T23:33:04.806Z,99.75
2022-11-26T23:35:32.456Z,100.00
2022-11-26T23:38:00.067Z,100.00
2022-11-26T23:40:27.705Z,100.00
2022-11-26T23:42:55.515Z,100.00
2022-11-26T23:45:23.071Z,100.00
2022-11-26T23:47:52.097Z,100.00
2022-11-26T23:50:19.836Z,100.00
2022-11-26T23:52:47.436Z,100.00
2022-11-26T23:55:16.418Z,100.00
2022-11-26T23:57:44.081Z,100.00
